createdAt,value
2024-03-31T00:02:27.631Z,7.80
2024-03-31T00:05:16.804Z,8.80
2024-03-31T00:08:06.308Z,7.30
2024-03-31T00:10:44.453Z,6.50
2024-03-31T00:13:13.280Z,6.60
2024-03-31T00:15:43.869Z,6.40
2024-03-31T00:18:16.814Z,6.30
2024-03-31T00:21:05.677Z,8.20
2024-03-31T00:23:50.870Z,6.80
2024-03-31T00:26:56.092Z,7.00
2024-03-31T00:29:29.542Z,6.40
2024-03-31T00:32:02.937Z,6.90
2024-03-31T00:34:33.607Z,6.90
2024-03-31T00:39:29.807Z,7.80
2024-03-31T00:41:58.199Z,7.60
2024-03-31T00:44:27.732Z,8.20
2024-03-31T00:46:57.968Z,8.50
2024-03-31T00:49:38.583Z,11.00
2024-03-31T00:52:21.895Z,9.30
2024-03-31T00:54:51.412Z,8.30
2024-03-31T00:57:53.994Z,8.60
2024-03-31T01:01:22.258Z,9.00
2024-03-31T01:03:51.074Z,8.60
2024-03-31T01:06:41.917Z,7.60
2024-03-31T01:09:22.014Z,8.50
2024-03-31T01:12:26.557Z,7.80
2024-03-31T01:15:01.420Z,7.30
2024-03-31T01:17:52.294Z,9.00
2024-03-31T01:20:35.509Z,9.30
2024-03-31T01:23:37.236Z,8.00
2024-03-31T01:26:41.238Z,7.60
2024-03-31T01:29:11.062Z,8.90
2024-03-31T01:31:45.030Z,9.40
2024-03-31T01:34:21.340Z,8.60
2024-03-31T01:36:52.677Z,8.40
2024-03-31T01:39:54.271Z,8.40
2024-03-31T01:42:40.846Z,11.40
2024-03-31T01:45:22.539Z,7.70
2024-03-31T01:47:51.233Z,6.50
2024-03-31T01:50:20.345Z,7.80
2024-03-31T01:52:56.135Z,7.20
2024-03-31T01:55:25.263Z,6.80
2024-03-31T01:57:57.038Z,6.10
2024-03-31T02:03:00.473Z,7.10
2024-03-31T02:05:29.625Z,5.50
2024-03-31T02:08:18.800Z,4.90
2024-03-31T02:10:54.378Z,5.90
2024-03-31T02:13:26.055Z,6.40
2024-03-31T02:15:55.569Z,6.30
2024-03-31T02:20:51.969Z,6.70
2024-03-31T02:23:20.659Z,7.70
2024-03-31T02:25:52.431Z,7.90
2024-03-31T02:28:24.345Z,9.20
2024-03-31T02:30:54.237Z,6.40
2024-03-31T02:33:25.100Z,7.70
2024-03-31T02:35:54.153Z,8.90
2024-03-31T02:41:05.290Z,5.60
2024-03-31T02:43:33.568Z,6.00
2024-03-31T02:46:02.135Z,6.90
2024-03-31T02:48:31.140Z,7.30
2024-03-31T02:50:59.700Z,6.30
2024-03-31T02:53:27.896Z,7.40
2024-03-31T02:55:56.106Z,6.80
2024-03-31T02:58:24.455Z,7.60
2024-03-31T03:00:52.856Z,7.30
2024-03-31T03:03:20.996Z,6.60
2024-03-31T03:05:55.498Z,5.00
2024-03-31T03:08:24.166Z,7.40
2024-03-31T03:10:54.526Z,8.00
2024-03-31T03:13:23.400Z,8.90
2024-03-31T03:15:52.313Z,10.50
2024-03-31T03:18:21.622Z,9.90
2024-03-31T03:20:57.899Z,8.00
2024-03-31T03:23:27.567Z,6.80
2024-03-31T03:26:00.281Z,7.60
2024-03-31T03:28:28.674Z,7.30
2024-03-31T03:30:57.002Z,7.40
2024-03-31T03:35:56.745Z,7.30
2024-03-31T03:38:25.136Z,8.70
2024-03-31T03:40:55.126Z,8.30
2024-03-31T03:43:27.167Z,7.50
2024-03-31T03:45:59.060Z,6.20
2024-03-31T03:48:36.674Z,5.70
2024-03-31T03:51:05.394Z,6.20
2024-03-31T03:53:33.576Z,7.10
2024-03-31T03:56:03.511Z,8.40
2024-03-31T03:58:31.766Z,9.00
2024-03-31T04:01:00.158Z,6.70
2024-03-31T04:03:28.499Z,6.50
2024-03-31T04:05:57.414Z,6.30
2024-03-31T04:08:26.479Z,6.20
2024-03-31T04:10:56.082Z,6.10
2024-03-31T04:13:24.938Z,6.80
2024-03-31T04:16:02.587Z,6.70
2024-03-31T04:18:36.147Z,5.70
2024-03-31T04:21:11.315Z,5.90
2024-03-31T04:23:41.223Z,5.20
2024-03-31T04:26:09.272Z,5.60
2024-03-31T04:28:37.462Z,4.70
2024-03-31T04:31:06.821Z,4.50
2024-03-31T04:36:04.080Z,6.80
2024-03-31T04:41:01.399Z,4.90
2024-03-31T04:43:29.822Z,6.70
2024-03-31T04:46:06.196Z,5.60
2024-03-31T04:48:35.535Z,5.70
2024-03-31T04:51:08.521Z,5.50
2024-03-31T04:53:40.525Z,6.20
2024-03-31T04:56:10.669Z,6.00
2024-03-31T04:58:39.070Z,6.20
2024-03-31T05:01:07.810Z,5.60
2024-03-31T05:03:36.194Z,5.50
2024-03-31T05:06:04.621Z,6.20
2024-03-31T05:08:32.802Z,5.80
2024-03-31T05:11:01.618Z,5.90
2024-03-31T05:13:33.618Z,5.80
2024-03-31T05:16:08.676Z,5.50
2024-03-31T05:18:37.977Z,7.60
2024-03-31T05:21:11.298Z,5.30
2024-03-31T05:23:39.457Z,5.80
2024-03-31T05:26:12.311Z,5.50
2024-03-31T05:28:54.965Z,6.10
2024-03-31T05:31:27.753Z,5.30
2024-03-31T05:34:16.156Z,5.50
2024-03-31T05:36:44.522Z,4.60
2024-03-31T05:39:12.982Z,3.80
2024-03-31T05:41:41.414Z,3.80
2024-03-31T05:44:09.559Z,4.20
2024-03-31T05:46:37.669Z,3.30
2024-03-31T05:49:06.223Z,4.40
2024-03-31T05:51:36.211Z,3.80
2024-03-31T05:54:04.478Z,3.10
2024-03-31T05:56:33.555Z,4.90
2024-03-31T05:59:03.951Z,6.70
2024-03-31T06:01:33.433Z,8.10
2024-03-31T06:04:01.639Z,7.00
2024-03-31T06:06:30.677Z,7.00
2024-03-31T06:08:58.955Z,5.80
2024-03-31T06:11:27.284Z,5.00
2024-03-31T06:13:56.279Z,5.30
2024-03-31T06:16:24.516Z,4.40
2024-03-31T06:18:52.678Z,4.90
2024-03-31T06:21:23.162Z,4.40
2024-03-31T06:23:51.745Z,4.80
2024-03-31T06:26:20.128Z,3.90
2024-03-31T06:28:48.705Z,3.40
2024-03-31T06:31:16.832Z,3.50
2024-03-31T06:33:48.463Z,3.40
2024-03-31T06:36:16.654Z,4.50
2024-03-31T06:38:44.855Z,4.80
2024-03-31T06:41:13.217Z,4.80
2024-03-31T06:43:41.453Z,5.20
2024-03-31T06:46:09.789Z,3.80
2024-03-31T06:48:37.985Z,3.90
2024-03-31T06:51:08.652Z,3.80
2024-03-31T06:53:37.364Z,4.90
2024-03-31T06:56:05.840Z,4.30
2024-03-31T06:58:34.638Z,3.70
2024-03-31T07:01:03.231Z,5.10
2024-03-31T07:03:31.945Z,4.00
2024-03-31T07:06:00.240Z,3.40
2024-03-31T07:08:29.067Z,4.10
2024-03-31T07:10:59.035Z,6.90
2024-03-31T07:13:27.509Z,5.00
2024-03-31T07:15:56.083Z,3.80
2024-03-31T07:18:26.728Z,3.90
2024-03-31T07:20:54.872Z,4.70
2024-03-31T07:23:24.367Z,3.00
2024-03-31T07:25:52.465Z,2.80
2024-03-31T07:28:23.165Z,3.00
2024-03-31T07:30:51.460Z,3.10
2024-03-31T07:33:19.857Z,2.70
2024-03-31T07:35:48.112Z,2.90
2024-03-31T07:38:16.194Z,3.20
2024-03-31T07:40:44.280Z,2.60
2024-03-31T07:43:12.274Z,3.00
2024-03-31T07:45:42.824Z,2.70
2024-03-31T07:48:10.919Z,3.50
2024-03-31T07:50:38.943Z,3.70
2024-03-31T07:53:08.157Z,2.60
2024-03-31T07:55:37.485Z,3.80
2024-03-31T07:58:06.610Z,2.90
2024-03-31T08:03:02.911Z,3.00
2024-03-31T08:05:33.255Z,3.10
2024-03-31T08:08:03.995Z,3.30
2024-03-31T08:10:31.951Z,3.20
2024-03-31T08:13:02.882Z,3.90
2024-03-31T08:15:33.279Z,3.30
2024-03-31T08:18:01.225Z,2.90
2024-03-31T08:20:29.966Z,3.20
2024-03-31T08:22:57.987Z,3.00
2024-03-31T08:25:28.335Z,3.40
2024-03-31T08:27:56.290Z,3.20
2024-03-31T08:30:24.825Z,2.80
2024-03-31T08:32:52.994Z,3.00
2024-03-31T08:35:21.037Z,3.30
2024-03-31T08:37:49.031Z,3.50
2024-03-31T08:40:17.409Z,4.00
2024-03-31T08:42:52.332Z,4.10
2024-03-31T08:45:22.173Z,6.30
2024-03-31T08:47:57.850Z,5.50
2024-03-31T08:50:26.498Z,5.90
2024-03-31T08:52:55.395Z,4.60
2024-03-31T08:57:54.039Z,4.00
2024-03-31T09:00:22.101Z,5.00
2024-03-31T09:02:50.608Z,6.20
2024-03-31T09:05:19.239Z,5.70
2024-03-31T09:07:47.539Z,5.90
2024-03-31T09:10:15.523Z,4.60
2024-03-31T09:12:46.469Z,4.90
2024-03-31T09:15:17.048Z,5.50
2024-03-31T09:17:45.020Z,5.20
2024-03-31T09:20:13.183Z,5.40
2024-03-31T09:22:42.049Z,4.90
2024-03-31T09:25:10.273Z,4.50
2024-03-31T09:27:38.494Z,5.00
2024-03-31T09:30:09.353Z,5.00
2024-03-31T09:32:39.954Z,5.30
2024-03-31T09:35:08.606Z,5.10
2024-03-31T09:37:38.028Z,4.90
2024-03-31T09:40:06.301Z,4.10
2024-03-31T09:42:37.262Z,5.60
2024-03-31T09:45:14.316Z,5.10
2024-03-31T09:47:49.731Z,5.90
2024-03-31T09:50:23.684Z,6.90
2024-03-31T09:52:59.677Z,6.40
2024-03-31T09:55:38.631Z,5.90
2024-03-31T09:58:12.724Z,6.60
2024-03-31T10:00:46.001Z,6.60
2024-03-31T10:03:21.446Z,6.10
2024-03-31T10:05:50.649Z,7.20
2024-03-31T10:08:21.409Z,7.80
2024-03-31T10:10:52.610Z,6.50
2024-03-31T10:13:21.850Z,6.70
2024-03-31T10:15:51.807Z,7.80
2024-03-31T10:18:25.607Z,7.20
2024-03-31T10:20:54.430Z,7.00
2024-03-31T10:28:22.535Z,6.70
2024-03-31T10:30:50.600Z,9.00
2024-03-31T10:33:32.597Z,8.60
2024-03-31T10:36:05.993Z,6.80
2024-03-31T10:38:34.199Z,7.00
2024-03-31T10:41:05.799Z,7.90
2024-03-31T10:43:37.605Z,7.00
2024-03-31T10:46:08.035Z,9.90
2024-03-31T10:48:36.997Z,7.00
2024-03-31T10:51:17.247Z,8.70
2024-03-31T10:53:45.410Z,8.10
2024-03-31T10:56:13.586Z,8.50
2024-03-31T10:58:42.965Z,9.60
2024-03-31T11:01:18.332Z,8.20
2024-03-31T11:03:48.066Z,7.70
2024-03-31T11:06:19.663Z,9.60
2024-03-31T11:08:47.679Z,7.60
2024-03-31T11:11:17.487Z,8.50
2024-03-31T11:13:46.574Z,8.00
2024-03-31T11:16:20.711Z,8.90
2024-03-31T11:18:53.146Z,7.70
2024-03-31T11:21:21.222Z,7.80
2024-03-31T11:23:52.214Z,7.90
2024-03-31T11:26:23.109Z,8.00
2024-03-31T11:28:55.741Z,8.50
2024-03-31T11:31:26.421Z,7.70
2024-03-31T11:33:55.675Z,8.30
2024-03-31T11:36:23.666Z,8.20
2024-03-31T11:38:51.834Z,8.10
2024-03-31T11:41:20.313Z,9.80
2024-03-31T11:43:48.600Z,10.60
2024-03-31T11:46:20.680Z,8.10
2024-03-31T11:48:49.191Z,9.80
2024-03-31T11:51:17.802Z,9.00
2024-03-31T11:53:46.038Z,9.90
2024-03-31T11:56:14.074Z,9.20
2024-03-31T11:58:42.083Z,10.20
2024-03-31T12:01:10.156Z,8.70
2024-03-31T12:03:40.663Z,10.10
2024-03-31T12:06:09.010Z,11.10
2024-03-31T12:08:46.444Z,9.50
2024-03-31T12:11:15.929Z,10.20
2024-03-31T12:13:53.492Z,10.10
2024-03-31T12:16:23.735Z,9.10
2024-03-31T12:18:51.738Z,10.30
2024-03-31T12:21:24.128Z,9.50
2024-03-31T12:23:53.925Z,9.70
2024-03-31T12:26:24.734Z,9.00
2024-03-31T12:28:59.141Z,10.30
2024-03-31T12:31:27.986Z,9.90
2024-03-31T12:33:56.264Z,10.90
2024-03-31T12:36:24.364Z,9.30
2024-03-31T12:38:52.491Z,10.00
2024-03-31T12:41:22.353Z,9.80
2024-03-31T12:43:51.718Z,8.70
2024-03-31T12:46:20.159Z,9.20
2024-03-31T12:48:48.092Z,8.70
2024-03-31T12:51:25.292Z,8.80
2024-03-31T12:53:53.374Z,9.00
2024-03-31T12:56:21.759Z,9.00
2024-03-31T12:58:53.582Z,8.30
2024-03-31T13:01:24.297Z,9.70
2024-03-31T13:03:53.265Z,9.10
2024-03-31T13:08:51.259Z,9.20
2024-03-31T13:11:19.215Z,8.70
2024-03-31T13:13:49.452Z,8.10
2024-03-31T13:16:19.881Z,8.30
2024-03-31T13:18:47.810Z,10.10
2024-03-31T13:21:21.426Z,9.20
2024-03-31T13:23:49.480Z,9.50
2024-03-31T13:26:17.440Z,9.10
2024-03-31T13:28:45.390Z,8.50
2024-03-31T13:31:13.707Z,9.20
2024-03-31T13:33:41.986Z,8.60
2024-03-31T13:36:09.874Z,7.60
2024-03-31T13:38:38.197Z,7.40
2024-03-31T13:41:06.171Z,9.00
2024-03-31T13:43:39.233Z,9.10
2024-03-31T13:46:07.186Z,7.40
2024-03-31T13:48:37.336Z,8.80
2024-03-31T13:51:07.874Z,8.60
2024-03-31T13:53:35.751Z,7.30
2024-03-31T13:56:03.817Z,8.20
2024-03-31T13:58:31.780Z,8.20
2024-03-31T14:01:02.310Z,9.10
2024-03-31T14:03:32.713Z,7.80
2024-03-31T14:06:00.749Z,9.80
2024-03-31T14:08:31.310Z,7.70
2024-03-31T14:11:00.791Z,8.60
2024-03-31T14:13:31.453Z,8.80
2024-03-31T14:16:00.328Z,8.00
2024-03-31T14:20:58.308Z,8.30
2024-03-31T14:23:26.294Z,9.70
2024-03-31T14:25:54.249Z,6.90
2024-03-31T14:28:22.234Z,8.40
2024-03-31T14:30:50.494Z,8.50
2024-03-31T14:33:18.420Z,8.60
2024-03-31T14:35:46.438Z,9.20
2024-03-31T14:38:16.636Z,9.10
2024-03-31T14:40:44.670Z,8.40
2024-03-31T14:43:12.902Z,9.10
2024-03-31T14:45:47.511Z,7.80
2024-03-31T14:48:20.131Z,8.10
2024-03-31T14:50:50.520Z,8.80
2024-03-31T14:53:21.028Z,8.80
2024-03-31T14:55:49.027Z,9.80
2024-03-31T14:58:17.017Z,9.70
2024-03-31T15:00:44.985Z,9.20
2024-03-31T15:03:15.021Z,7.80
2024-03-31T15:05:54.079Z,7.70
2024-03-31T15:08:23.404Z,7.70
2024-03-31T15:10:51.404Z,8.30
2024-03-31T15:13:19.426Z,7.60
2024-03-31T15:15:47.391Z,9.20
2024-03-31T15:18:15.356Z,8.00
2024-03-31T15:20:45.917Z,9.40
2024-03-31T15:23:14.778Z,8.80
2024-03-31T15:25:45.191Z,8.40
2024-03-31T15:28:17.864Z,8.30
2024-03-31T15:30:55.691Z,8.20
2024-03-31T15:33:23.776Z,8.70
2024-03-31T15:35:51.839Z,8.80
2024-03-31T15:38:19.911Z,8.30
2024-03-31T15:40:48.097Z,8.90
2024-03-31T15:43:16.079Z,8.20
2024-03-31T15:45:57.529Z,9.20
2024-03-31T15:48:27.983Z,8.40
2024-03-31T15:50:55.945Z,9.00
2024-03-31T15:53:24.063Z,11.60
2024-03-31T15:55:52.078Z,14.20
2024-03-31T15:58:20.327Z,13.20
2024-03-31T16:00:48.659Z,11.00
2024-03-31T16:03:16.683Z,11.90
2024-03-31T16:05:46.717Z,9.90
2024-03-31T16:08:14.781Z,9.30
2024-03-31T16:10:44.015Z,11.20
2024-03-31T16:13:11.991Z,8.90
2024-03-31T16:15:41.165Z,9.40
2024-03-31T16:18:09.212Z,9.10
2024-03-31T16:20:37.474Z,9.40
2024-03-31T16:23:07.822Z,10.70
2024-03-31T16:25:42.706Z,8.80
2024-03-31T16:28:10.840Z,8.60
2024-03-31T16:30:43.050Z,9.20
2024-03-31T16:33:11.759Z,9.90
2024-03-31T16:35:39.727Z,9.50
2024-03-31T16:38:07.744Z,9.40
2024-03-31T16:40:40.526Z,8.80
2024-03-31T16:43:12.374Z,8.90
2024-03-31T16:45:40.353Z,7.70
2024-03-31T16:48:08.760Z,8.50
2024-03-31T16:50:36.711Z,7.40
2024-03-31T16:53:05.128Z,7.00
2024-03-31T16:55:33.183Z,7.30
2024-03-31T16:58:01.305Z,8.50
2024-03-31T17:00:29.321Z,7.70
2024-03-31T17:02:57.422Z,8.50
2024-03-31T17:05:25.920Z,8.00
2024-03-31T17:07:53.976Z,10.10
2024-03-31T17:10:24.200Z,7.70
2024-03-31T17:12:54.615Z,8.70
2024-03-31T17:15:22.655Z,7.30
2024-03-31T17:17:50.715Z,7.20
2024-03-31T17:20:18.670Z,7.00
2024-03-31T17:22:47.135Z,7.10
2024-03-31T17:25:17.340Z,7.80
2024-03-31T17:27:46.880Z,6.30
2024-03-31T17:30:20.098Z,5.60
2024-03-31T17:32:49.124Z,5.80
2024-03-31T17:37:45.414Z,6.50
2024-03-31T17:40:13.423Z,6.00
2024-03-31T17:42:46.169Z,7.00
2024-03-31T17:45:14.155Z,6.10
2024-03-31T17:47:42.080Z,6.40
2024-03-31T17:50:10.204Z,6.70
2024-03-31T17:52:38.280Z,7.20
2024-03-31T17:55:06.597Z,5.30
2024-03-31T17:57:34.583Z,4.50
2024-03-31T18:00:02.586Z,6.60
2024-03-31T18:02:35.007Z,5.40
2024-03-31T18:05:04.467Z,5.70
2024-03-31T18:07:35.988Z,5.00
2024-03-31T18:10:05.270Z,5.40
2024-03-31T18:12:33.524Z,6.10
2024-03-31T18:15:05.543Z,5.60
2024-03-31T18:17:33.564Z,5.00
2024-03-31T18:20:01.678Z,5.60
2024-03-31T18:22:29.825Z,5.60
2024-03-31T18:25:02.903Z,6.20
2024-03-31T18:27:32.598Z,5.50
2024-03-31T18:30:00.557Z,4.80
2024-03-31T18:32:28.746Z,4.80
2024-03-31T18:34:56.757Z,4.70
2024-03-31T18:37:24.905Z,4.60
2024-03-31T18:39:53.187Z,6.00
2024-03-31T18:42:23.675Z,6.00
2024-03-31T18:44:51.591Z,6.40
2024-03-31T18:47:19.674Z,5.40
2024-03-31T18:49:48.817Z,5.50
2024-03-31T18:54:48.448Z,5.50
2024-03-31T18:57:21.868Z,5.40
2024-03-31T18:59:52.585Z,5.40
2024-03-31T19:02:22.781Z,4.90
2024-03-31T19:04:55.990Z,5.60
2024-03-31T19:07:26.579Z,5.60
2024-03-31T19:09:59.451Z,6.40
2024-03-31T19:12:29.690Z,5.20
2024-03-31T19:14:57.671Z,6.70
2024-03-31T19:17:28.146Z,6.70
2024-03-31T19:19:56.300Z,6.10
2024-03-31T19:22:24.289Z,6.60
2024-03-31T19:24:54.737Z,6.40
2024-03-31T19:27:28.642Z,6.90
2024-03-31T19:30:00.255Z,4.90
2024-03-31T19:32:30.567Z,6.80
2024-03-31T19:34:58.757Z,6.50
2024-03-31T19:37:28.045Z,6.30
2024-03-31T19:39:58.553Z,5.50
2024-03-31T19:42:29.028Z,5.20
2024-03-31T19:44:57.068Z,5.70
2024-03-31T19:47:25.255Z,6.50
2024-03-31T19:49:55.730Z,6.50
2024-03-31T19:52:25.900Z,6.10
2024-03-31T19:54:56.053Z,6.20
2024-03-31T19:57:26.453Z,6.90
2024-03-31T19:59:54.448Z,5.90
2024-03-31T20:02:22.793Z,5.50
2024-03-31T20:04:53.049Z,6.60
2024-03-31T20:07:21.168Z,6.90
2024-03-31T20:09:49.269Z,5.90
2024-03-31T20:12:18.748Z,5.90
2024-03-31T20:14:54.014Z,5.50
2024-03-31T20:17:21.978Z,5.90
2024-03-31T20:19:50.073Z,5.30
2024-03-31T20:22:18.051Z,5.60
2024-03-31T20:24:52.076Z,6.30
2024-03-31T20:27:20.603Z,6.00
2024-03-31T20:29:49.796Z,4.80
2024-03-31T20:34:48.268Z,6.50
2024-03-31T20:37:16.335Z,5.50
2024-03-31T20:39:44.531Z,5.80
2024-03-31T20:42:12.952Z,5.10
2024-03-31T20:44:41.015Z,6.80
2024-03-31T20:47:09.550Z,7.10
2024-03-31T20:49:37.562Z,5.40
2024-03-31T20:52:08.063Z,6.50
2024-03-31T20:54:36.142Z,5.60
2024-03-31T20:57:04.535Z,5.70
2024-03-31T20:59:34.686Z,6.20
2024-03-31T21:02:02.667Z,6.50
2024-03-31T21:04:33.055Z,5.80
2024-03-31T21:07:05.561Z,5.70
2024-03-31T21:09:34.183Z,5.60
2024-03-31T21:12:06.235Z,5.30
2024-03-31T21:14:34.946Z,4.70
2024-03-31T21:17:05.149Z,4.60
2024-03-31T21:19:34.178Z,5.70
2024-03-31T21:22:05.695Z,5.30
2024-03-31T21:24:34.912Z,6.20
2024-03-31T21:27:08.567Z,7.60
2024-03-31T21:29:36.947Z,7.20
2024-03-31T21:32:05.386Z,5.20
2024-03-31T21:34:33.942Z,5.60
2024-03-31T21:37:02.416Z,6.40
2024-03-31T21:39:30.571Z,6.00
2024-03-31T21:41:58.780Z,5.10
2024-03-31T21:44:26.933Z,4.60
2024-03-31T21:46:57.615Z,3.80
2024-03-31T21:49:25.832Z,4.80
2024-03-31T21:51:54.332Z,6.30
2024-03-31T21:54:25.917Z,6.80
2024-03-31T21:57:07.622Z,5.70
2024-03-31T21:59:40.638Z,5.90
2024-03-31T22:02:12.405Z,4.60
2024-03-31T22:04:40.467Z,5.40
2024-03-31T22:07:10.886Z,5.20
2024-03-31T22:09:39.005Z,4.90
2024-03-31T22:12:07.840Z,5.20
2024-03-31T22:14:36.229Z,5.70
2024-03-31T22:17:04.614Z,5.90
2024-03-31T22:19:32.759Z,4.70
2024-03-31T22:22:01.080Z,5.70
2024-03-31T22:24:29.128Z,5.10
2024-03-31T22:26:57.256Z,5.80
2024-03-31T22:29:25.471Z,6.80
2024-03-31T22:31:53.711Z,4.70
2024-03-31T22:34:21.851Z,4.40
2024-03-31T22:36:50.002Z,4.50
2024-03-31T22:39:18.338Z,5.10
2024-03-31T22:41:46.683Z,5.20
2024-03-31T22:44:17.139Z,4.60
2024-03-31T22:46:47.767Z,4.50
2024-03-31T22:49:16.155Z,5.40
2024-03-31T22:51:44.500Z,5.40
2024-03-31T22:54:12.557Z,5.60
2024-03-31T22:56:40.467Z,5.50
2024-03-31T22:59:08.903Z,5.10
2024-03-31T23:01:36.865Z,5.30
2024-03-31T23:04:07.362Z,4.70
2024-03-31T23:06:35.652Z,5.30
2024-03-31T23:09:04.176Z,6.00
2024-03-31T23:11:34.901Z,6.30
2024-03-31T23:14:03.032Z,5.60
2024-03-31T23:16:31.208Z,5.40
2024-03-31T23:19:01.545Z,4.40
2024-03-31T23:21:33.576Z,5.60
2024-03-31T23:24:01.698Z,4.60
2024-03-31T23:26:29.755Z,5.40
2024-03-31T23:28:57.833Z,5.20
2024-03-31T23:31:26.288Z,5.40
2024-03-31T23:33:56.708Z,5.40
2024-03-31T23:36:25.208Z,5.40
2024-03-31T23:38:56.190Z,4.70
2024-03-31T23:41:24.346Z,5.40
2024-03-31T23:43:55.202Z,5.90
2024-03-31T23:46:23.331Z,6.40
2024-03-31T23:48:51.651Z,4.60
2024-03-31T23:51:22.393Z,4.50
2024-03-31T23:53:53.341Z,5.60
2024-03-31T23:56:21.494Z,5.90
2024-03-31T23:58:49.706Z,6.50
